Time;durP1;ratioP1;P1;durP2;ratioP2;P2;SDS_P1;SDS_P2;PMS_P1;PMS_P2;Temp;Humidity;BMP_temperature;BMP_pressure;BME280_temperature;BME280_humidity;BME280_pressure;Samples;Min_cycle;Max_cycle;Signal;HPM_P1;HPM_P2
2022/08/20 00:00:24;;;;;;;2.70;2.50;;;;;;;;;;5017185;28;20049;-73
2022/08/20 00:02:54;;;;;;;4.35;2.40;;;;;;;;;;5017453;28;20065;-73
2022/08/20 00:05:23;;;;;;;2.85;2.22;;;;;;;;;;5017412;28;20104;-74
2022/08/20 00:07:52;;;;;;;3.67;2.60;;;;;;;;;;5017767;28;20643;-74
2022/08/20 00:10:18;;;;;;;2.28;1.88;;;;;;;;;;5017575;28;20064;-73
2022/08/20 00:12:45;;;;;;;2.80;2.30;;;;;;;;;;5017517;28;20128;-73
2022/08/20 00:15:13;;;;;;;3.47;2.20;;;;;;;;;;5017709;28;20151;-73
2022/08/20 00:17:39;;;;;;;3.17;2.20;;;;;;;;;;5017905;28;20038;-73
2022/08/20 00:20:13;;;;;;;2.50;2.30;;;;;;;;;;5017250;28;20053;-73
2022/08/20 00:22:43;;;;;;;2.10;2.00;;;;;;;;;;4999167;28;20042;-73
2022/08/20 00:25:09;;;;;;;2.95;2.00;;;;;;;;;;5017236;28;20111;-73
2022/08/20 00:27:43;;;;;;;3.78;2.30;;;;;;;;;;5017217;28;20037;-73
2022/08/20 00:30:10;;;;;;;3.35;2.05;;;;;;;;;;5017249;28;20042;-73
2022/08/20 00:32:42;;;;;;;3.35;1.88;;;;;;;;;;5017108;28;20045;-73
2022/08/20 00:35:09;;;;;;;2.90;2.05;;;;;;;;;;5017111;28;20050;-73
2022/08/20 00:37:35;;;;;;;2.10;1.60;;;;;;;;;;5016696;28;20042;-73
2022/08/20 00:40:01;;;;;;;2.25;2.05;;;;;;;;;;5017216;28;20553;-73
2022/08/20 00:42:27;;;;;;;3.83;2.15;;;;;;;;;;4999100;28;20049;-73
2022/08/20 00:44:53;;;;;;;2.45;1.77;;;;;;;;;;5017219;28;20050;-73
2022/08/20 00:47:19;;;;;;;3.95;2.03;;;;;;;;;;5016889;28;20073;-73
2022/08/20 00:49:49;;;;;;;2.50;1.90;;;;;;;;;;5016702;28;20041;-73
2022/08/20 00:52:19;;;;;;;2.65;1.50;;;;;;;;;;5016360;28;20034;-73
2022/08/20 00:54:45;;;;;;;;;;;;;;;;;;5017193;28;20046;-73
2022/08/20 00:57:22;;;;;;;2.80;1.60;;;;;;;;;;4999130;28;20071;-73
2022/08/20 00:59:49;;;;;;;2.13;1.60;;;;;;;;;;5016427;28;20045;-73
2022/08/20 01:02:16;;;;;;;3.15;1.75;;;;;;;;;;5016018;28;20139;-73
2022/08/20 01:04:47;;;;;;;2.10;1.75;;;;;;;;;;5014763;28;20096;-73
2022/08/20 01:07:13;;;;;;;1.67;1.50;;;;;;;;;;5016133;28;20104;-73
2022/08/20 01:09:39;;;;;;;4.22;2.00;;;;;;;;;;5020626;28;20124;-73
2022/08/20 01:12:06;;;;;;;7.82;1.63;;;;;;;;;;5017996;28;20427;-73
2022/08/20 01:14:43;;;;;;;1.55;1.25;;;;;;;;;;5035870;28;20492;-73
2022/08/20 01:17:13;;;;;;;3.15;1.80;;;;;;;;;;5017738;28;20037;-73
2022/08/20 01:19:48;;;;;;;1.95;1.58;;;;;;;;;;5035903;28;20045;-73
2022/08/20 01:25:07;;;;;;;2.75;1.80;;;;;;;;;;5035305;28;20079;-73
2022/08/20 01:27:34;;;;;;;2.00;1.65;;;;;;;;;;5035502;28;20056;-73
2022/08/20 01:30:01;;;;;;;2.67;1.80;;;;;;;;;;5035498;28;20029;-73
2022/08/20 01:32:28;;;;;;;1.70;1.60;;;;;;;;;;5035516;28;20075;-73
2022/08/20 01:34:54;;;;;;;1.80;1.50;;;;;;;;;;5017206;28;20056;-73
2022/08/20 01:37:20;;;;;;;2.08;1.48;;;;;;;;;;5034996;28;20403;-73
2022/08/20 01:39:46;;;;;;;2.53;1.90;;;;;;;;;;5035111;28;20050;-74
2022/08/20 01:42:30;;;;;;;1.77;1.50;;;;;;;;;;5035053;28;20103;-74
2022/08/20 01:44:56;;;;;;;1.52;1.42;;;;;;;;;;5034765;28;20045;-74
2022/08/20 01:47:30;;;;;;;2.42;1.38;;;;;;;;;;5035271;28;20124;-74
2022/08/20 01:49:58;;;;;;;2.10;1.40;;;;;;;;;;5035453;28;20125;-74
2022/08/20 01:52:45;;;;;;;2.92;1.45;;;;;;;;;;5033494;28;20049;-74
2022/08/20 01:55:11;;;;;;;1.83;1.20;;;;;;;;;;5012587;28;20075;-73
2022/08/20 01:57:38;;;;;;;1.98;1.20;;;;;;;;;;5016329;28;20037;-74
2022/08/20 02:00:14;;;;;;;2.47;1.70;;;;;;;;;;5033468;28;20079;-73
2022/08/20 02:02:40;;;;;;;1.38;1.27;;;;;;;;;;5034952;28;20072;-73
2022/08/20 02:05:07;;;;;;;1.38;1.27;;;;;;;;;;5034465;28;20049;-73
2022/08/20 02:07:33;;;;;;;3.40;1.58;;;;;;;;;;5034543;28;20060;-73
2022/08/20 02:10:00;;;;;;;5.70;1.60;;;;;;;;;;5034528;28;20037;-74
2022/08/20 02:12:26;;;;;;;3.10;1.60;;;;;;;;;;5034858;28;20045;-73
2022/08/20 02:14:53;;;;;;;3.35;1.35;;;;;;;;;;5034789;28;20040;-74
2022/08/20 02:17:21;;;;;;;1.48;1.35;;;;;;;;;;5017046;28;20041;-73
2022/08/20 02:19:52;;;;;;;1.52;1.40;;;;;;;;;;5034357;28;20522;-73
2022/08/20 02:22:18;;;;;;;2.33;1.38;;;;;;;;;;5016836;28;20041;-74
2022/08/20 02:24:45;;;;;;;1.73;1.38;;;;;;;;;;5034868;28;20160;-73
2022/08/20 02:27:11;;;;;;;2.97;1.40;;;;;;;;;;5034926;28;20106;-73
2022/08/20 02:29:37;;;;;;;4.45;1.27;;;;;;;;;;5034749;28;20052;-73
2022/08/20 02:32:05;;;;;;;2.80;1.77;;;;;;;;;;5034477;28;20044;-73
2022/08/20 02:34:33;;;;;;;3.40;1.50;;;;;;;;;;5034494;28;20037;-73
2022/08/20 02:37:00;;;;;;;1.98;1.75;;;;;;;;;;5034194;28;20495;-74
2022/08/20 02:39:26;;;;;;;1.95;1.40;;;;;;;;;;5034434;28;20131;-73
2022/08/20 02:41:52;;;;;;;1.58;1.33;;;;;;;;;;5034517;28;20491;-73
2022/08/20 02:44:19;;;;;;;4.75;1.60;;;;;;;;;;5016914;28;20061;-73
2022/08/20 02:46:47;;;;;;;1.88;1.35;;;;;;;;;;5034081;28;20045;-73
2022/08/20 02:49:13;;;;;;;4.47;1.80;;;;;;;;;;5034358;28;20064;-73
2022/08/20 02:51:39;;;;;;;1.80;1.42;;;;;;;;;;5034322;28;20128;-73
2022/08/20 02:54:05;;;;;;;2.05;1.20;;;;;;;;;;5034780;28;20098;-73
2022/08/20 02:56:31;;;;;;;3.47;1.40;;;;;;;;;;5036801;28;20100;-74
2022/08/20 02:58:57;;;;;;;2.17;1.45;;;;;;;;;;5038378;28;20053;-73
2022/08/20 03:01:23;;;;;;;1.67;1.58;;;;;;;;;;5038098;28;20037;-73
2022/08/20 03:03:49;;;;;;;1.70;1.60;;;;;;;;;;5038505;28;20042;-74
2022/08/20 03:06:16;;;;;;;2.35;1.60;;;;;;;;;;5037893;28;20057;-74
2022/08/20 03:08:42;;;;;;;1.92;1.52;;;;;;;;;;5037853;28;20041;-74
2022/08/20 03:11:08;;;;;;;2.15;1.55;;;;;;;;;;5038060;28;20555;-74
2022/08/20 03:13:36;;;;;;;3.67;1.98;;;;;;;;;;5038062;28;20116;-74
2022/08/20 03:16:03;;;;;;;2.58;1.63;;;;;;;;;;5038157;28;20052;-74
2022/08/20 03:18:31;;;;;;;3.15;1.65;;;;;;;;;;5037680;28;20530;-74
2022/08/20 03:20:58;;;;;;;2.63;1.60;;;;;;;;;;5037868;28;20045;-74
2022/08/20 03:23:24;;;;;;;2.40;1.90;;;;;;;;;;5038336;28;20129;-74
2022/08/20 03:25:50;;;;;;;3.13;2.10;;;;;;;;;;5038209;28;20068;-74
2022/08/20 03:28:17;;;;;;;3.15;1.88;;;;;;;;;;5037590;28;20045;-74
2022/08/20 03:30:44;;;;;;;1.80;1.70;;;;;;;;;;5037533;28;20049;-74
2022/08/20 03:33:10;;;;;;;2.00;1.70;;;;;;;;;;5037506;28;20042;-74
2022/08/20 03:35:37;;;;;;;2.22;1.85;;;;;;;;;;5037688;28;20072;-74
2022/08/20 03:38:07;;;;;;;1.75;1.65;;;;;;;;;;5037645;28;20045;-74
2022/08/20 03:40:34;;;;;;;2.55;1.65;;;;;;;;;;5037500;28;20122;-74
2022/08/20 03:43:00;;;;;;;1.95;1.80;;;;;;;;;;5037620;28;20041;-74
2022/08/20 03:45:27;;;;;;;3.38;2.00;;;;;;;;;;5037669;28;20099;-73
2022/08/20 03:47:54;;;;;;;2.45;1.60;;;;;;;;;;5037248;28;20049;-74
2022/08/20 03:50:22;;;;;;;2.72;1.80;;;;;;;;;;5037295;28;20095;-74
2022/08/20 03:52:48;;;;;;;2.10;1.80;;;;;;;;;;5037596;28;20091;-74
2022/08/20 03:55:14;;;;;;;2.88;1.63;;;;;;;;;;5019037;28;20043;-74
2022/08/20 03:58:01;;;;;;;3.28;1.88;;;;;;;;;;5036984;28;20037;-74
2022/08/20 04:00:29;;;;;;;2.25;1.63;;;;;;;;;;5037078;28;20049;-74
2022/08/20 04:02:56;;;;;;;3.55;1.85;;;;;;;;;;5037218;28;20040;-74
2022/08/20 04:05:23;;;;;;;2.55;1.83;;;;;;;;;;5037141;28;20192;-74
2022/08/20 04:07:49;;;;;;;1.95;1.70;;;;;;;;;;5036358;28;20075;-74
2022/08/20 04:10:16;;;;;;;3.22;2.00;;;;;;;;;;5037014;28;20048;-73
2022/08/20 04:12:42;;;;;;;2.65;1.98;;;;;;;;;;5037059;28;20187;-74
2022/08/20 04:15:14;;;;;;;3.15;1.80;;;;;;;;;;5037193;28;20045;-74
2022/08/20 04:17:42;;;;;;;1.98;1.80;;;;;;;;;;5037428;28;20491;-73
2022/08/20 04:20:09;;;;;;;2.55;2.03;;;;;;;;;;5036467;28;20041;-74
2022/08/20 04:22:36;;;;;;;2.45;1.85;;;;;;;;;;5036576;28;20037;-74
2022/08/20 04:25:03;;;;;;;2.88;1.98;;;;;;;;;;5036832;28;20048;-74
2022/08/20 04:27:31;;;;;;;2.53;2.33;;;;;;;;;;5036822;28;20049;-74
2022/08/20 04:29:57;;;;;;;3.90;1.90;;;;;;;;;;5036732;28;20140;-74
2022/08/20 04:32:23;;;;;;;2.95;1.70;;;;;;;;;;5036446;28;20045;-74
2022/08/20 04:34:51;;;;;;;1.63;1.40;;;;;;;;;;5036788;28;20033;-74
2022/08/20 04:37:21;;;;;;;2.53;1.80;;;;;;;;;;5036165;28;20046;-74
2022/08/20 04:40:52;;;;;;;3.40;1.60;;;;;;;;;;5036235;28;20074;-74
2022/08/20 04:42:34;;;;;;;2.65;1.60;;;;;;;;;;5036175;28;20256;-74
2022/08/20 04:45:00;;;;;;;2.63;1.77;;;;;;;;;;5036208;28;20069;-74
2022/08/20 04:47:26;;;;;;;2.55;1.70;;;;;;;;;;5036135;28;20124;-74
2022/08/20 04:49:55;;;;;;;4.20;1.73;;;;;;;;;;5036367;28;20068;-74
2022/08/20 04:52:21;;;;;;;2.60;1.85;;;;;;;;;;5035861;28;20124;-74
2022/08/20 04:54:48;;;;;;;5.03;1.45;;;;;;;;;;5036228;28;20491;-74
2022/08/20 04:57:14;;;;;;;1.50;1.40;;;;;;;;;;5036154;28;20068;-74
2022/08/20 04:59:40;;;;;;;3.70;1.80;;;;;;;;;;5035932;28;20515;-74
2022/08/20 05:02:06;;;;;;;3.90;1.88;;;;;;;;;;5018301;28;20037;-74
2022/08/20 05:04:32;;;;;;;4.93;1.80;;;;;;;;;;5035762;28;20115;-74
2022/08/20 05:06:58;;;;;;;1.95;1.70;;;;;;;;;;5035710;28;20057;-74
2022/08/20 05:09:24;;;;;;;2.97;1.63;;;;;;;;;;5035838;28;20094;-74
2022/08/20 05:11:51;;;;;;;2.75;2.00;;;;;;;;;;5036034;28;20046;-74
2022/08/20 05:14:17;;;;;;;3.92;1.77;;;;;;;;;;5035793;28;20030;-74
2022/08/20 05:16:43;;;;;;;3.10;1.80;;;;;;;;;;5036194;28;20045;-74
2022/08/20 05:19:10;;;;;;;1.95;1.73;;;;;;;;;;5034625;28;20526;-74
2022/08/20 05:21:37;;;;;;;2.13;1.63;;;;;;;;;;5035498;28;20049;-74
2022/08/20 05:24:05;;;;;;;5.68;2.00;;;;;;;;;;5035408;28;20522;-74
2022/08/20 05:26:32;;;;;;;2.55;2.10;;;;;;;;;;5035377;28;20037;-74
2022/08/20 05:28:58;;;;;;;3.40;1.92;;;;;;;;;;5001721;28;20049;-74
2022/08/20 05:31:24;;;;;;;3.88;1.80;;;;;;;;;;5035283;28;20151;-74
2022/08/20 05:33:51;;;;;;;3.45;2.03;;;;;;;;;;5035818;28;20064;-74
2022/08/20 05:36:17;;;;;;;2.65;2.03;;;;;;;;;;5035644;28;20045;-74
2022/08/20 05:38:43;;;;;;;5.22;2.22;;;;;;;;;;5034962;28;20045;-74
2022/08/20 05:41:09;;;;;;;6.32;2.28;;;;;;;;;;5016097;28;20067;-74
2022/08/20 05:43:35;;;;;;;4.82;1.60;;;;;;;;;;5034524;28;20112;-74
2022/08/20 05:46:01;;;;;;;3.28;1.77;;;;;;;;;;5034337;28;20088;-74
2022/08/20 05:48:28;;;;;;;1.92;1.30;;;;;;;;;;5016899;28;20037;-74
2022/08/20 05:50:56;;;;;;;1.85;1.67;;;;;;;;;;5033862;28;20038;-74
2022/08/20 05:53:23;;;;;;;3.72;1.90;;;;;;;;;;5034526;28;20061;-74
2022/08/20 05:55:56;;;;;;;10.05;1.20;;;;;;;;;;5033652;28;20091;-75
2022/08/20 05:58:23;;;;;;;2.15;1.10;;;;;;;;;;5033943;28;20420;-74
2022/08/20 06:00:50;;;;;;;1.77;1.27;;;;;;;;;;5034326;28;20052;-73
2022/08/20 06:06:02;;;;;;;1.08;1.08;;;;;;;;;;5032947;28;20510;-73
2022/08/20 06:08:28;;;;;;;1.52;1.08;;;;;;;;;;5026422;28;20042;-73
2022/08/20 06:10:55;;;;;;;1.60;1.00;;;;;;;;;;5031581;28;20045;-74
2022/08/20 06:13:21;;;;;;;1.83;0.95;;;;;;;;;;5034614;28;20038;-73
2022/08/20 06:15:53;;;;;;;0.90;0.90;;;;;;;;;;5034408;28;20068;-74
2022/08/20 06:18:19;;;;;;;3.13;1.05;;;;;;;;;;5034900;28;20132;-74
2022/08/20 06:20:46;;;;;;;1.65;1.25;;;;;;;;;;5034552;28;20568;-74
2022/08/20 06:23:12;;;;;;;1.50;1.13;;;;;;;;;;5034389;28;20041;-74
2022/08/20 06:25:39;;;;;;;1.10;1.00;;;;;;;;;;5035061;28;20046;-74
2022/08/20 06:28:05;;;;;;;1.30;1.15;;;;;;;;;;5035453;28;20050;-73
2022/08/20 06:30:32;;;;;;;1.27;1.05;;;;;;;;;;5034653;28;20472;-74
2022/08/20 06:32:59;;;;;;;1.15;1.00;;;;;;;;;;5034814;28;20029;-74
2022/08/20 06:35:25;;;;;;;1.48;1.00;;;;;;;;;;5034872;28;20059;-73
2022/08/20 06:37:52;;;;;;;3.22;1.67;;;;;;;;;;5035119;28;20035;-73
2022/08/20 06:40:27;;;;;;;1.98;1.10;;;;;;;;;;5034752;28;20547;-73
2022/08/20 06:42:54;;;;;;;1.17;1.00;;;;;;;;;;5034751;28;20124;-74
2022/08/20 06:45:25;;;;;;;0.95;0.90;;;;;;;;;;5034648;28;20041;-73
2022/08/20 06:47:51;;;;;;;;;;;;;;;;;;5035055;28;20076;-73
2022/08/20 06:50:18;;;;;;;1.20;1.10;;;;;;;;;;5034546;28;19909;-73
2022/08/20 06:52:46;;;;;;;2.60;1.35;;;;;;;;;;5034405;28;20037;-73
2022/08/20 06:55:13;;;;;;;2.30;1.20;;;;;;;;;;5034858;28;20045;-73
2022/08/20 06:57:39;;;;;;;2.00;1.80;;;;;;;;;;5034175;28;20033;-74
2022/08/20 07:00:07;;;;;;;1.23;1.00;;;;;;;;;;5034251;28;20065;-73
2022/08/20 07:02:35;;;;;;;2.35;1.23;;;;;;;;;;5034514;28;20033;-74
2022/08/20 07:05:01;;;;;;;2.00;1.38;;;;;;;;;;5033495;28;20384;-74
2022/08/20 07:07:28;;;;;;;1.23;1.15;;;;;;;;;;5033711;28;20156;-75
2022/08/20 07:10:00;;;;;;;1.95;1.27;;;;;;;;;;5033475;28;20065;-74
2022/08/20 07:12:26;;;;;;;1.52;1.30;;;;;;;;;;5015883;28;20392;-75
2022/08/20 07:14:53;;;;;;;2.38;1.30;;;;;;;;;;5033003;28;20037;-75
2022/08/20 07:17:19;;;;;;;2.63;1.40;;;;;;;;;;5033045;28;20050;-74
2022/08/20 07:19:45;;;;;;;1.65;1.13;;;;;;;;;;5032632;28;20569;-74
2022/08/20 07:22:12;;;;;;;2.35;1.25;;;;;;;;;;5012242;28;20049;-74
2022/08/20 07:24:39;;;;;;;3.17;1.30;;;;;;;;;;5012846;28;20069;-75
2022/08/20 07:27:05;;;;;;;1.20;1.10;;;;;;;;;;5027653;28;20037;-75
2022/08/20 07:35:02;;;;;;;2.78;1.02;;;;;;;;;;5032887;28;20455;-75
2022/08/20 07:37:28;;;;;;;1.00;0.90;;;;;;;;;;5032186;28;20523;-77
2022/08/20 07:39:54;;;;;;;5.25;4.75;;;;;;;;;;5032890;28;20111;-75
2022/08/20 07:42:21;;;;;;;2.35;2.15;;;;;;;;;;5016301;28;20128;-74
2022/08/20 07:44:47;;;;;;;1.52;1.42;;;;;;;;;;5018785;28;20068;-74
2022/08/20 07:47:17;;;;;;;1.45;1.20;;;;;;;;;;5017544;28;20099;-75
2022/08/20 07:49:43;;;;;;;2.33;1.20;;;;;;;;;;5033640;28;20037;-72
2022/08/20 07:52:09;;;;;;;2.63;1.30;;;;;;;;;;5017864;28;20111;-73
2022/08/20 07:54:36;;;;;;;1.27;0.90;;;;;;;;;;5030424;28;20076;-73
2022/08/20 07:57:03;;;;;;;3.42;1.42;;;;;;;;;;5036941;28;20041;-73
2022/08/20 07:59:30;;;;;;;1.30;1.10;;;;;;;;;;5037134;28;20085;-73
2022/08/20 08:01:57;;;;;;;1.42;1.30;;;;;;;;;;5036973;28;20041;-73
2022/08/20 08:04:24;;;;;;;3.28;2.22;;;;;;;;;;5036481;28;20063;-72
2022/08/20 08:06:51;;;;;;;2.05;1.30;;;;;;;;;;5036354;28;20060;-73
2022/08/20 08:09:17;;;;;;;1.13;1.00;;;;;;;;;;5033760;28;20396;-73
2022/08/20 08:11:49;;;;;;;1.10;1.00;;;;;;;;;;5017620;28;20037;-72
2022/08/20 08:14:24;;;;;;;1.23;0.90;;;;;;;;;;5016957;28;20041;-72
2022/08/20 08:16:52;;;;;;;0.77;0.77;;;;;;;;;;5017352;28;20080;-73
2022/08/20 08:19:18;;;;;;;1.33;0.80;;;;;;;;;;5036835;28;20053;-73
2022/08/20 08:21:44;;;;;;;0.75;0.60;;;;;;;;;;5037112;28;20048;-73
2022/08/20 08:24:11;;;;;;;2.50;0.80;;;;;;;;;;5037144;28;20476;-72
2022/08/20 08:26:37;;;;;;;1.33;0.63;;;;;;;;;;5037495;28;20054;-73
2022/08/20 08:29:06;;;;;;;0.60;0.60;;;;;;;;;;5036936;28;20045;-70
2022/08/20 08:31:32;;;;;;;0.60;0.52;;;;;;;;;;5035686;28;20033;-72
2022/08/20 08:33:59;;;;;;;0.95;0.50;;;;;;;;;;5029357;28;20040;-73
2022/08/20 08:36:26;;;;;;;2.47;0.65;;;;;;;;;;5012503;28;20500;-72
2022/08/20 08:38:53;;;;;;;0.68;0.50;;;;;;;;;;5033485;28;20372;-72
2022/08/20 08:41:28;;;;;;;0.82;0.50;;;;;;;;;;5036561;28;20045;-72
2022/08/20 08:43:57;;;;;;;0.40;0.40;;;;;;;;;;5036810;28;20049;-73
2022/08/20 08:46:25;;;;;;;0.50;0.50;;;;;;;;;;5037118;28;20041;-72
2022/08/20 08:48:52;;;;;;;0.55;0.40;;;;;;;;;;5036670;28;20046;-71
2022/08/20 08:51:25;;;;;;;0.75;0.30;;;;;;;;;;5036054;28;20041;-71
2022/08/20 08:53:53;;;;;;;0.40;0.30;;;;;;;;;;5035722;28;20037;-71
2022/08/20 08:56:20;;;;;;;1.05;0.30;;;;;;;;;;5023437;28;20109;-71
2022/08/20 08:58:47;;;;;;;0.30;0.30;;;;;;;;;;5036293;28;20045;-70
2022/08/20 09:01:19;;;;;;;0.63;0.40;;;;;;;;;;5027267;28;20076;-70
2022/08/20 09:03:46;;;;;;;0.47;0.30;;;;;;;;;;5016404;28;20393;-71
2022/08/20 09:06:14;;;;;;;0.47;0.30;;;;;;;;;;5011461;28;20463;-71
2022/08/20 09:08:46;;;;;;;0.30;0.30;;;;;;;;;;5035906;28;20128;-70
2022/08/20 09:11:13;;;;;;;0.30;0.30;;;;;;;;;;5034954;28;20404;-72
2022/08/20 09:13:41;;;;;;;0.65;0.20;;;;;;;;;;5024344;28;20049;-72
2022/08/20 09:16:08;;;;;;;0.45;0.30;;;;;;;;;;5015719;28;20052;-72
2022/08/20 09:18:34;;;;;;;0.32;0.32;;;;;;;;;;5015654;28;20046;-71
2022/08/20 09:21:00;;;;;;;0.35;0.30;;;;;;;;;;5016172;28;20038;-72
2022/08/20 09:23:27;;;;;;;1.08;0.30;;;;;;;;;;5016351;28;20465;-74
2022/08/20 09:25:53;;;;;;;0.30;0.30;;;;;;;;;;5001457;28;20048;-73
2022/08/20 09:28:19;;;;;;;1.08;0.30;;;;;;;;;;5035763;28;20045;-72
2022/08/20 09:30:46;;;;;;;2.58;0.30;;;;;;;;;;5035170;28;20404;-71
2022/08/20 09:33:12;;;;;;;0.38;0.30;;;;;;;;;;5035411;28;20041;-72
2022/08/20 09:35:39;;;;;;;0.50;0.32;;;;;;;;;;5034765;28;20045;-72
2022/08/20 09:38:05;;;;;;;0.82;0.32;;;;;;;;;;5031781;28;20518;-73
2022/08/20 09:40:34;;;;;;;0.90;0.30;;;;;;;;;;5035348;28;20029;-71
2022/08/20 09:43:00;;;;;;;0.40;0.40;;;;;;;;;;5035618;28;20433;-71
2022/08/20 09:45:26;;;;;;;0.60;0.40;;;;;;;;;;5023802;28;20037;-70
2022/08/20 09:47:52;;;;;;;0.77;0.30;;;;;;;;;;5033599;28;20045;-70
2022/08/20 09:50:18;;;;;;;0.30;0.30;;;;;;;;;;5020918;28;20112;-70
2022/08/20 09:52:47;;;;;;;1.10;0.30;;;;;;;;;;5014481;28;20085;-70
2022/08/20 09:55:22;;;;;;;0.43;0.30;;;;;;;;;;5015296;28;20104;-69
2022/08/20 09:57:49;;;;;;;1.85;1.02;;;;;;;;;;5015366;28;20041;-71
2022/08/20 10:00:15;;;;;;;0.20;0.20;;;;;;;;;;5015029;28;20084;-71
2022/08/20 10:02:42;;;;;;;0.70;0.57;;;;;;;;;;5014983;28;20070;-72
2022/08/20 10:05:08;;;;;;;0.82;0.80;;;;;;;;;;5024100;28;20579;-71
2022/08/20 10:07:35;;;;;;;1.55;0.50;;;;;;;;;;5035307;28;20096;-71
2022/08/20 10:10:01;;;;;;;0.90;0.40;;;;;;;;;;5034091;28;20048;-71
2022/08/20 10:12:28;;;;;;;0.77;0.50;;;;;;;;;;5034771;28;20104;-71
2022/08/20 10:14:54;;;;;;;0.55;0.30;;;;;;;;;;5034901;28;20064;-70
2022/08/20 10:17:20;;;;;;;1.92;0.30;;;;;;;;;;5034795;28;20045;-71
2022/08/20 10:19:46;;;;;;;2.03;0.28;;;;;;;;;;5034685;28;20140;-71
2022/08/20 10:22:13;;;;;;;0.63;0.60;;;;;;;;;;5034936;28;20125;-72
2022/08/20 10:24:39;;;;;;;0.40;0.30;;;;;;;;;;5034668;28;20064;-71
2022/08/20 10:27:05;;;;;;;0.80;0.65;;;;;;;;;;5034749;28;20053;-71
2022/08/20 10:29:31;;;;;;;1.27;0.57;;;;;;;;;;5034920;28;20519;-71
2022/08/20 10:32:08;;;;;;;1.05;0.90;;;;;;;;;;5034873;28;20420;-71
2022/08/20 10:34:34;;;;;;;1.30;0.68;;;;;;;;;;5034223;28;20045;-71
2022/08/20 10:37:00;;;;;;;0.77;0.43;;;;;;;;;;5034797;28;20193;-71
2022/08/20 10:39:26;;;;;;;0.75;0.57;;;;;;;;;;5034466;28;20107;-72
2022/08/20 10:41:52;;;;;;;1.33;0.52;;;;;;;;;;5034151;28;20033;-72
2022/08/20 10:44:18;;;;;;;0.63;0.20;;;;;;;;;;5025859;28;20420;-72
2022/08/20 10:46:44;;;;;;;0.47;0.30;;;;;;;;;;5015627;28;20050;-71
2022/08/20 10:49:11;;;;;;;0.50;0.30;;;;;;;;;;5015691;28;20128;-71
2022/08/20 10:51:37;;;;;;;1.15;0.40;;;;;;;;;;5023658;28;20033;-72
2022/08/20 10:54:03;;;;;;;1.42;0.30;;;;;;;;;;5024301;28;20068;-72
2022/08/20 10:56:29;;;;;;;0.35;0.35;;;;;;;;;;5029262;28;20049;-70
2022/08/20 10:58:55;;;;;;;0.38;0.30;;;;;;;;;;5029352;28;20518;-71
2022/08/20 11:01:22;;;;;;;0.30;0.30;;;;;;;;;;5025073;28;20054;-71
2022/08/20 11:03:48;;;;;;;0.65;0.43;;;;;;;;;;5021369;28;20090;-71
2022/08/20 11:06:14;;;;;;;0.32;0.30;;;;;;;;;;5021281;28;20064;-71
2022/08/20 11:08:40;;;;;;;0.60;0.30;;;;;;;;;;5023561;28;20045;-71
2022/08/20 11:11:07;;;;;;;1.00;0.30;;;;;;;;;;5031808;28;20128;-73
2022/08/20 11:13:34;;;;;;;0.80;0.47;;;;;;;;;;5006134;28;20459;-71
2022/08/20 11:16:00;;;;;;;2.13;0.50;;;;;;;;;;5025105;28;20175;-71
2022/08/20 11:18:26;;;;;;;1.95;0.45;;;;;;;;;;5034774;28;20491;-71
2022/08/20 11:20:53;;;;;;;0.80;0.40;;;;;;;;;;5036733;28;20125;-70
2022/08/20 11:23:19;;;;;;;0.85;0.40;;;;;;;;;;5037110;28;20083;-71
2022/08/20 11:25:45;;;;;;;0.88;0.50;;;;;;;;;;5037084;28;20099;-73
2022/08/20 11:28:11;;;;;;;0.43;0.40;;;;;;;;;;5037341;28;20045;-69
2022/08/20 11:30:38;;;;;;;0.73;0.43;;;;;;;;;;5044691;28;20128;-71
2022/08/20 11:33:05;;;;;;;0.70;0.50;;;;;;;;;;5036926;28;20033;-71
2022/08/20 11:35:33;;;;;;;1.40;0.57;;;;;;;;;;5037745;28;20077;-72
2022/08/20 11:37:59;;;;;;;0.52;0.40;;;;;;;;;;5034917;28;20041;-71
2022/08/20 11:40:26;;;;;;;0.50;0.47;;;;;;;;;;5030035;28;20038;-71
2022/08/20 11:42:52;;;;;;;0.70;0.50;;;;;;;;;;5036456;28;20041;-76
2022/08/20 11:45:18;;;;;;;1.15;0.55;;;;;;;;;;5035329;28;20381;-69
2022/08/20 11:47:44;;;;;;;2.40;0.80;;;;;;;;;;5035074;28;20044;-68
2022/08/20 11:50:15;;;;;;;1.63;0.60;;;;;;;;;;5036645;28;20496;-68
2022/08/20 11:52:41;;;;;;;0.57;0.57;;;;;;;;;;5035303;28;20129;-68
2022/08/20 11:55:09;;;;;;;0.90;0.77;;;;;;;;;;5034766;28;20041;-68
2022/08/20 11:57:36;;;;;;;1.08;0.88;;;;;;;;;;5036965;28;20120;-68
2022/08/20 12:00:05;;;;;;;1.35;0.90;;;;;;;;;;5037388;28;20076;-68
2022/08/20 12:02:31;;;;;;;1.08;0.60;;;;;;;;;;5037286;28;20083;-68
2022/08/20 12:04:58;;;;;;;1.90;0.65;;;;;;;;;;5037395;28;20476;-67
2022/08/20 12:07:24;;;;;;;1.10;0.40;;;;;;;;;;5036754;28;20061;-68
2022/08/20 12:09:51;;;;;;;2.58;0.50;;;;;;;;;;5037101;28;20098;-68
2022/08/20 12:12:19;;;;;;;0.47;0.40;;;;;;;;;;5037180;28;20037;-68
2022/08/20 12:14:45;;;;;;;2.75;0.60;;;;;;;;;;5036702;28;20073;-68
2022/08/20 12:17:12;;;;;;;0.43;0.40;;;;;;;;;;5037063;28;20194;-68
2022/08/20 12:19:39;;;;;;;1.27;0.57;;;;;;;;;;5036936;28;20097;-68
2022/08/20 12:22:06;;;;;;;1.00;0.55;;;;;;;;;;5036524;28;20045;-68
2022/08/20 12:24:32;;;;;;;0.73;0.68;;;;;;;;;;5036931;28;20049;-68
2022/08/20 12:27:18;;;;;;;1.17;0.80;;;;;;;;;;5036934;28;20128;-68
2022/08/20 12:29:46;;;;;;;0.65;0.50;;;;;;;;;;5036302;28;20056;-68
2022/08/20 12:32:12;;;;;;;0.45;0.35;;;;;;;;;;5036523;28;20048;-68
2022/08/20 12:34:39;;;;;;;1.20;0.40;;;;;;;;;;5036748;28;20562;-68
2022/08/20 12:37:11;;;;;;;0.95;0.40;;;;;;;;;;5036597;28;20037;-67
2022/08/20 12:39:37;;;;;;;0.60;0.40;;;;;;;;;;5037010;28;20416;-67
2022/08/20 12:42:03;;;;;;;0.40;0.40;;;;;;;;;;5037077;28;20029;-69
2022/08/20 12:44:30;;;;;;;1.10;0.30;;;;;;;;;;5036548;28;20051;-69
2022/08/20 12:47:08;;;;;;;1.20;0.43;;;;;;;;;;5036230;28;20033;-69
2022/08/20 12:49:35;;;;;;;2.60;0.45;;;;;;;;;;5036100;28;20492;-69
2022/08/20 12:52:01;;;;;;;0.40;0.40;;;;;;;;;;5036245;28;20042;-69
2022/08/20 12:54:27;;;;;;;0.63;0.40;;;;;;;;;;5036081;28;20496;-69
2022/08/20 12:56:53;;;;;;;1.02;0.40;;;;;;;;;;5036672;28;20037;-69
2022/08/20 12:59:21;;;;;;;0.55;0.30;;;;;;;;;;5036235;28;20049;-69
2022/08/20 13:01:47;;;;;;;0.60;0.50;;;;;;;;;;5036698;28;20041;-69
2022/08/20 13:04:13;;;;;;;0.40;0.25;;;;;;;;;;5035816;28;20167;-70
2022/08/20 13:06:39;;;;;;;0.30;0.30;;;;;;;;;;5035587;28;20061;-70
2022/08/20 13:09:05;;;;;;;0.50;0.38;;;;;;;;;;5036636;28;20041;-70
2022/08/20 13:11:32;;;;;;;0.40;0.40;;;;;;;;;;5036299;28;20045;-70
2022/08/20 13:13:58;;;;;;;0.32;0.32;;;;;;;;;;5035916;28;20120;-69
2022/08/20 13:16:24;;;;;;;0.50;0.30;;;;;;;;;;5036469;28;20060;-70
2022/08/20 13:18:50;;;;;;;0.30;0.30;;;;;;;;;;5035967;28;20484;-70
2022/08/20 13:21:17;;;;;;;1.13;0.55;;;;;;;;;;5035825;28;20045;-70
2022/08/20 13:23:43;;;;;;;0.65;0.50;;;;;;;;;;5035440;28;20037;-69
2022/08/20 13:26:09;;;;;;;1.40;0.30;;;;;;;;;;5035463;28;20492;-70
2022/08/20 13:28:35;;;;;;;0.50;0.50;;;;;;;;;;5035445;28;20119;-70
2022/08/20 13:31:01;;;;;;;1.63;0.20;;;;;;;;;;5035374;28;20037;-69
2022/08/20 13:33:28;;;;;;;0.28;0.28;;;;;;;;;;5036379;28;20044;-70
2022/08/20 13:35:54;;;;;;;1.55;0.30;;;;;;;;;;5035668;28;20046;-70
2022/08/20 13:38:20;;;;;;;0.30;0.30;;;;;;;;;;5035697;28;20045;-70
2022/08/20 13:40:47;;;;;;;0.20;0.20;;;;;;;;;;5034971;28;20067;-70
2022/08/20 13:43:13;;;;;;;0.75;0.30;;;;;;;;;;5035475;28;20095;-69
2022/08/20 13:45:39;;;;;;;0.88;0.30;;;;;;;;;;5035162;28;20080;-69
2022/08/20 13:48:06;;;;;;;1.30;0.20;;;;;;;;;;5035397;28;20052;-70
2022/08/20 13:50:32;;;;;;;2.28;0.40;;;;;;;;;;5035105;28;20033;-69
2022/08/20 13:52:58;;;;;;;1.85;0.30;;;;;;;;;;5034918;28;20129;-69
2022/08/20 13:55:25;;;;;;;0.93;0.40;;;;;;;;;;5035843;28;20049;-70
2022/08/20 13:57:52;;;;;;;0.60;0.60;;;;;;;;;;5035760;28;20171;-70
2022/08/20 14:00:26;;;;;;;0.50;0.30;;;;;;;;;;5034842;28;20069;-69
2022/08/20 14:02:52;;;;;;;0.30;0.20;;;;;;;;;;5034770;28;20116;-69
2022/08/20 14:05:18;;;;;;;0.50;0.50;;;;;;;;;;5034696;28;20176;-70
2022/08/20 14:07:44;;;;;;;1.42;0.50;;;;;;;;;;5034561;28;20057;-70
2022/08/20 14:10:13;;;;;;;0.57;0.30;;;;;;;;;;5034937;28;20040;-69
2022/08/20 14:12:39;;;;;;;0.43;0.22;;;;;;;;;;5035437;28;20124;-70
2022/08/20 14:15:06;;;;;;;0.47;0.30;;;;;;;;;;5035275;28;20045;-69
2022/08/20 14:17:37;;;;;;;1.55;0.47;;;;;;;;;;5034535;28;20083;-69
2022/08/20 14:20:06;;;;;;;0.43;0.43;;;;;;;;;;5035072;28;20064;-69
2022/08/20 14:22:32;;;;;;;2.25;0.30;;;;;;;;;;5034700;28;20115;-70
2022/08/20 14:25:02;;;;;;;0.68;0.30;;;;;;;;;;5034904;28;20115;-70
2022/08/20 14:27:28;;;;;;;0.80;0.35;;;;;;;;;;5034656;28;20037;-69
2022/08/20 14:29:55;;;;;;;0.30;0.30;;;;;;;;;;5034574;28;20041;-69
2022/08/20 14:32:21;;;;;;;0.75;0.30;;;;;;;;;;5034404;28;20511;-69
2022/08/20 14:34:47;;;;;;;0.50;0.30;;;;;;;;;;5034643;28;20496;-70
2022/08/20 14:37:24;;;;;;;0.30;0.20;;;;;;;;;;5034459;28;20037;-70
2022/08/20 14:39:51;;;;;;;0.20;0.20;;;;;;;;;;5034568;28;20065;-69
2022/08/20 14:42:19;;;;;;;1.15;0.50;;;;;;;;;;5034141;28;20484;-70
2022/08/20 14:44:45;;;;;;;1.63;0.40;;;;;;;;;;5034724;28;20044;-70
2022/08/20 14:47:16;;;;;;;0.40;0.20;;;;;;;;;;5034820;28;20511;-69
2022/08/20 14:49:43;;;;;;;0.63;0.30;;;;;;;;;;5035005;28;20087;-70
2022/08/20 14:52:09;;;;;;;1.85;0.50;;;;;;;;;;5035403;28;20120;-69
2022/08/20 14:54:35;;;;;;;0.68;0.30;;;;;;;;;;5038792;28;20096;-70